Station: Elliston

  Atmospheric Gas Attenuation - ITU Rec 676-11   --------------- db/100km ---------------
Date Time Temp RH % AH g/m3 Dew Point Wind Direction Speed kph Gust kph Barometer mB Rainfall Since 9am 24GHz 47GHz 76GHz 122GHz 134GHz 241GHz
27 09:00 13.5 65 7.6 7.2 22 1026 0 17.5 24.9 36.5 95.5 86.7 297.3
26 09:00 13.9 59 7.07 6 1025.1 16.3 23.9 34.3 89.5 79.5 272.0
25 09:00 10.7 72 7.07 5.8 19 1018.5 7 16.5 24.5 35.4 92.6 82.3 281.7
24 09:00 15 63 8.08 8.1 28 1013.1 0 18.4 24.7 37.2 97.4 90.2 309.9
23 09:00 15 78 10 11.3 28 1013.1 0.4 22.5 27.8 44.9 118.0 115.5 398.6
22 09:00 15.5 64 8.46 8.7 33 1015.9 2 19.2 25.3 38.5 101.0 94.7 325.7
21 09:00 16.5 66 9.27 10.1 52 1006.1 0 20.9 25.9 40.8 107.2 103.1 355.3
20 09:00 20.4 63 11.14 13.1 7 1001.6 0 24.7 27.6 45.8 120.8 121.4 419.8
19 09:00 15.2 91 11.81 13.8 4 1007.7 2 26.4 30.7 52.2 137.7 140.1 484.4
18 09:00 20.7 56 10.08 11.8 26 1012.9 0.8 22.4 26.2 42.1 110.6 108.4 374.2
17 09:00 15 94 12.05 14.1 19 1018.1 10 26.9 31.6 54.0 142.2 145.1 501.7
16 09:00 21.5 33 6.22 4.7 28 1016.5 0 14.2 20.5 28.1 73.1 62.3 212.7
15 09:00 12 86 9.17 9.7 19 1029.8 0 20.9 28.0 43.9 115.0 110.0 378.6
13 09:00 14.2 71 8.67 9.1 19 1028.3 2 19.7 26.5 40.6 106.2 100.1 344.2
12 09:00 16.7 78 11.08 12.8 15 1021.8 0.1 24.7 29.4 48.8 128.4 128.6 444.3
11 09:00 23.2 57 11.85 14.4 15 1019 0.2 26.0 28.5 47.8 126.0 127.9 442.7
10 09:00 17.7 62 9.35 10.4 11 1019.2 0 21.0 26.2 41.1 107.8 103.6 357.2
09 09:00 14.4 73 9.02 9.6 28 1028.1 0 20.4 27.0 41.9 109.7 104.5 359.6
08 09:00 16 76 10.35 11.8 2 1025.5 0 23.2 28.6 46.3 121.8 120.0 414.1
07 09:00 24 22 4.79 0.9 28 1011.6 0 11.2 18.0 22.6 58.7 45.5 154.0
06 09:00 18 49 7.53 7.1 22 1018.5 0 17.1 23.3 34.0 88.9 80.5 276.4
05 09:00 14.1 86 10.44 11.9 0 1022.1 0.4 23.5 29.2 47.7 125.4 123.9 427.6
04 09:00 13.8 91 10.84 12.3 19 1020.5 0 24.4 30.0 49.5 130.3 129.9 448.7
03 09:00 15.6 76 10.11 11.5 22 1015.9 0.1 22.7 27.9 45.1 118.6 116.4 401.6
02 09:00 15 77 9.87 11.1 28 1009.7 0 22.3 27.5 44.2 116.2 113.4 391.3
01 09:00 14.5 47 5.85 3.3 22 1015.2 0 13.7 21.6 29.2 76.0 63.5 216.1
31 09:00 12.9 67 7.55 6.9 4 1029.9 0 17.4 25.1 36.8 96.1 87.0 298.2
30 09:00 14.3 87 10.69 12.1 37 1024 0.6 24.0 29.7 48.7 128.2 127.3 439.5
28 09:00 11 97 9.71 10.6 19 1029.6 0 22.1 29.3 46.8 122.8 119.1 410.5
27 09:00 12.6 95 10.51 11.9 4 1028.2 0 23.7 30.1 49.2 129.4 128.0 441.7
26 09:00 14.1 64 7.77 7.4 7 1027.6 0 17.8 25.0 37.0 96.7 88.3 303.1
25 09:00 10.5 77 7.47 6.7 19 1030.1 0 17.3 25.6 37.6 98.2 88.7 303.7
24 09:00 9.7 85 7.84 7.4 4 1025.3 0 18.1 26.3 39.3 102.8 94.3 323.3
23 09:00 12 76 8.1 7.9 6 1024.2 0.2 18.6 26.0 39.2 102.6 94.9 325.8
22 09:00 11.9 77 8.16 8 28 1022.8 3 18.7 26.1 39.4 103.2 95.7 328.6
21 09:00 12.9 74 8.34 8.5 37 1014.6 6 19.1 25.8 39.3 103.0 96.2 330.7
20 09:00 13.9 70 8.39 8.6 28 1013.8 2 19.1 25.5 38.9 102.1 95.6 328.6
19 09:00 13 84 9.53 10.3 33 1006.5 6 21.6 27.4 43.7 115.0 111.4 384.1
18 09:00 11.6 96 9.98 11 22 1003.7 7 22.7 28.5 46.3 121.9 119.6 412.4
17 09:00 14.6 74 9.26 10 22 1005.7 0.2 21.0 26.4 41.7 109.7 105.5 363.4
16 09:00 10.5 93 9.02 9.5 7 1019.6 0 20.6 27.8 43.6 114.4 109.1 375.5
15 09:00 1013.1
14 09:00 14 90 10.86 12.4 15 1011.8 4 24.4 29.6 49.1 129.2 129.0 445.5
13 09:00 13.8 96 11.44 13.1 19 1010.7 6 25.7 30.6 51.7 136.2 137.6 475.5
12 09:00 14.7 94 11.83 13.8 22 1006.2 4 26.5 30.8 52.6 138.6 141.1 488.0
11 09:00 13 86 9.75 10.7 22 1006.7 6 22.1 27.8 44.7 117.5 114.5 394.8
10 09:00 8.8 82 7.14 6 11 1019.7 0 16.7 25.2 36.6 95.7 85.4 292.1
09 09:00 12.5 85 9.35 10 28 1021.1 0.8 21.3 27.8 43.9 115.4 111.0 382.3
08 09:00 13 82 9.3 10.1 15 1025.4 4 21.1 27.8 43.7 114.6 110.0 378.7
07 09:00 12 73 7.78 7.3 19 1017.1 0 17.9 25.2 37.6 98.4 90.1 309.1
06 09:00 10 64 6.02 3.6 19 1017.2 0 14.2 23.0 31.5 82.3 69.4 236.4
05 09:00 8.8 84 7.31 6.2 28 1017.9 0 17.0 25.4 37.2 97.4 87.5 299.7
04 09:00 7 87 6.74 5 7 1020.6 0 15.9 25.1 35.8 93.6 82.0 280.0
03 09:00 10.5 86 8.34 8.3 22 1020.5 0 19.2 26.7 40.7 106.8 99.7 342.6
02 09:00 9.3 96 8.63 8.7 6 1023.4 0.6 19.9 27.7 42.7 112.1 105.6 363.0
01 09:00 13 56 6.35 4.5 19 1022.2 0 14.8 22.9 31.8 83.0 71.2 242.9
31 09:00 11.9 77 8.16 8 7 1025.1 0 18.7 26.2 39.5 103.4 95.9 329.3
30 09:00 7.2 95 7.46 6.5 0 1030.5 0 17.4 26.6 39.2 102.4 92.4 316.4
29 09:00 10.6 93 9.08 9.6 2 1022.9 0 20.8 28.0 43.9 115.3 110.1 378.9
28 09:00 10 87 8.18 7.9 2 1023.6 0 18.9 26.7 40.5 106.0 98.4 337.9
27 09:00 11 95 9.51 10.2 2 1026 1 21.7 28.8 45.7 120.0 115.9 399.3
26 09:00 10.6 97 9.47 10.2 2 1024.7 0.2 21.6 28.8 45.7 120.0 115.8 398.9
25 09:00 9 100 8.82 9 2 1023.8 5 20.3 28.1 43.8 114.8 108.8 374.1
24 09:00 10.6 65 6.35 4.4 19 1017.6 0 14.9 23.4 32.6 85.1 73.1 249.3
23 09:00 6.5 93 6.98 5.4 2 1026.8 0 16.4 25.9 37.3 97.5 86.3 294.8
22 09:00 7.3 95 7.51 6.6 4 1031.8 0 17.5 26.7 39.4 103.0 93.1 318.8
21 09:00 7.9 96 7.89 7.3 4 1033 0 18.3 27.2 40.8 106.6 97.8 335.4
20 09:00 10.5 92 8.92 9.3 6 1029.2 0.1 20.4 28.1 43.6 114.3 108.6 373.4
19 09:00 14 79 9.53 10.4 30 1019.3 5 21.6 27.6 43.8 115.0 111.2 383.1
18 09:00 15.6 47 6.25 4.3 32 1011.2 0.2 14.5 21.8 30.0 78.4 67.0 228.8
17 09:00 10.5 66 6.4 4.5 19 1020.4 0 15.0 23.6 32.9 86.0 74.0 252.4
16 09:00 12.5 89 9.79 10.8 4 1025.5 0 22.2 28.8 46.0 120.9 117.6 405.3
15 09:00 11.2 66 6.69 5.1 22 1021.8 0 15.6 23.9 33.8 88.3 77.1 263.5
14 09:00 9.5 92 8.38 8.3 4 1028.2 0 19.3 27.4 41.8 109.5 102.2 351.1
13 09:00 5.4 94 6.56 4.5 0 1028.9 0 15.6 25.5 36.1 94.3 81.8 279.0
12 09:00 13.2 78 8.96 9.5 19 1024.1 5 20.4 27.1 42.1 110.3 104.9 361.1
11 09:00 10.3 93 8.91 9.3 37 1017.2 3 20.4 27.6 43.1 113.2 107.6 370.3
10 09:00 11.5 95 9.81 10.7 0 1020.9 6 22.3 28.9 46.5 122.1 119.0 410.1
09 09:00 8.2 64 5.36 1.9 11 1022.7 0 12.9 22.6 29.9 77.8 62.9 213.3
08 09:00 3.9 89 5.63 2.2 4 1027.1 0 13.6 24.3 32.8 85.6 70.4 238.8
07 09:00 6.4 93 6.93 5.3 9 1031.5 0 16.3 26.0 37.3 97.5 86.0 293.9
06 09:00 7.4 97 7.72 7 7 1033.8 0 18.0 27.1 40.3 105.4 96.1 329.3
03 09:00 13.4 86 10 11.1 15 1028.1 5 22.6 28.9 46.5 122.2 119.4 411.7
02 09:00 12.9 69 7.78 7.4 28 1020.3 4 17.9 25.1 37.3 97.6 89.3 306.4
01 09:00 13.5 73 8.54 8.8 19 1010.4 0 19.5 25.8 39.6 103.9 97.8 336.2
30 09:00 10.5 59 5.72 2.9 11 1014.8 0.2 13.6 22.3 30.1 78.5 65.1 221.3
29 09:00 1013.1
28 09:00 8.6 70 6.02 3.5 2 1028 0.1 14.3 23.7 32.5 84.7 71.3 242.8
27 09:00 10.1 66 6.24 4 4 1026.5 0.1 14.7 23.6 32.7 85.3 72.7 247.8
26 09:00 9.2 93 8.31 8.2 4 1027.3 0.8 19.2 27.3 41.6 109.0 101.6 348.8
25 09:00 10.6 83 8.1 7.9 4 1023.7 0.2 18.7 26.4 39.8 104.4 96.6 331.5
24 09:00 9.9 77 7.19 6 7 1020.7 0 16.7 25.0 36.3 95.0 84.9 290.6
23 09:00 12.4 82 8.96 9.5 4 1024.4 0.1 20.4 27.3 42.5 111.5 106.0 364.9
22 09:00 14.9 79 10.07 11.4 19 1023.1 0.8 22.7 28.4 45.7 120.1 117.6 405.6
21 09:00 13.9 74 8.87 9.4 28 1019.7 4 20.2 26.5 41.1 107.9 102.4 352.4
20 09:00 13.5 79 9.24 10 33 1019 6 21.0 27.3 42.8 112.4 107.9 371.5
19 09:00 14.9 85 10.83 12.5 15 1018.3 0.6 24.3 29.5 48.7 128.1 127.7 441.1
18 09:00 12.6 68 7.52 6.8 22 1025.3 0 17.3 25.0 36.6 95.7 86.6 296.9
17 09:00 11 91 9.11 9.6 7 1021.9 0 20.8 27.9 43.8 115.0 109.9 378.2
16 09:00 15.3 88 11.49 13.3 2 1027.3 0.2 25.7 30.9 51.8 136.2 137.4 474.8

Last Refresh: 27-Sep-2020 12:57:11

Most of the information presented on this site is sourced from the Bureau of Meteorology.  Copyright in all material sourced from the Bureau of Meteorology resides with the Commonwealth of Australia.